sensor_id;sensor_type;location;lat;lon;timestamp;P1;durP1;ratioP1;P2;durP2;ratioP2
48014;SDS011;33780;51.034;7.120;2023-04-25T00:01:00;4.03;;;0.98;;
48014;SDS011;33780;51.034;7.120;2023-04-25T00:03:27;2.22;;;1.00;;
48014;SDS011;33780;51.034;7.120;2023-04-25T00:05:54;3.47;;;0.93;;
48014;SDS011;33780;51.034;7.120;2023-04-25T00:08:21;1.65;;;0.90;;
48014;SDS011;33780;51.034;7.120;2023-04-25T00:10:47;2.13;;;1.10;;
48014;SDS011;33780;51.034;7.120;2023-04-25T00:13:13;2.17;;;0.93;;
48014;SDS011;33780;51.034;7.120;2023-04-25T00:15:39;2.03;;;0.90;;
48014;SDS011;33780;51.034;7.120;2023-04-25T00:18:06;2.40;;;1.05;;
48014;SDS011;33780;51.034;7.120;2023-04-25T00:20:32;3.03;;;1.35;;
48014;SDS011;33780;51.034;7.120;2023-04-25T00:22:57;2.50;;;1.00;;
48014;SDS011;33780;51.034;7.120;2023-04-25T00:25:22;4.50;;;0.90;;
48014;SDS011;33780;51.034;7.120;2023-04-25T00:27:48;3.17;;;1.08;;
48014;SDS011;33780;51.034;7.120;2023-04-25T00:30:13;2.88;;;1.00;;
48014;SDS011;33780;51.034;7.120;2023-04-25T00:32:39;2.50;;;0.90;;
48014;SDS011;33780;51.034;7.120;2023-04-25T00:35:04;3.78;;;1.00;;
48014;SDS011;33780;51.034;7.120;2023-04-25T00:37:30;1.40;;;0.70;;
48014;SDS011;33780;51.034;7.120;2023-04-25T00:39:57;3.00;;;0.90;;
48014;SDS011;33780;51.034;7.120;2023-04-25T00:42:26;3.30;;;1.00;;
48014;SDS011;33780;51.034;7.120;2023-04-25T00:44:52;2.78;;;0.90;;
48014;SDS011;33780;51.034;7.120;2023-04-25T00:47:18;1.77;;;0.70;;
48014;SDS011;33780;51.034;7.120;2023-04-25T00:49:43;2.17;;;0.95;;
48014;SDS011;33780;51.034;7.120;2023-04-25T00:52:09;2.65;;;1.30;;
48014;SDS011;33780;51.034;7.120;2023-04-25T00:54:35;4.05;;;1.15;;
48014;SDS011;33780;51.034;7.120;2023-04-25T00:57:00;1.83;;;1.00;;
48014;SDS011;33780;51.034;7.120;2023-04-25T00:59:26;6.18;;;1.25;;
48014;SDS011;33780;51.034;7.120;2023-04-25T01:01:53;1.73;;;1.00;;
48014;SDS011;33780;51.034;7.120;2023-04-25T01:04:21;1.85;;;0.95;;
48014;SDS011;33780;51.034;7.120;2023-04-25T01:06:46;2.63;;;1.15;;
48014;SDS011;33780;51.034;7.120;2023-04-25T01:09:12;2.28;;;1.10;;
48014;SDS011;33780;51.034;7.120;2023-04-25T01:11:38;2.30;;;1.10;;
48014;SDS011;33780;51.034;7.120;2023-04-25T01:14:05;3.47;;;1.33;;
48014;SDS011;33780;51.034;7.120;2023-04-25T01:16:30;3.15;;;0.98;;
48014;SDS011;33780;51.034;7.120;2023-04-25T01:18:56;2.25;;;0.98;;
48014;SDS011;33780;51.034;7.120;2023-04-25T01:21:21;1.92;;;1.00;;
48014;SDS011;33780;51.034;7.120;2023-04-25T01:23:47;3.70;;;1.17;;
48014;SDS011;33780;51.034;7.120;2023-04-25T01:26:12;2.80;;;1.50;;
48014;SDS011;33780;51.034;7.120;2023-04-25T01:28:38;2.78;;;1.38;;
48014;SDS011;33780;51.034;7.120;2023-04-25T01:31:06;3.22;;;1.40;;
48014;SDS011;33780;51.034;7.120;2023-04-25T01:33:31;2.35;;;1.10;;
48014;SDS011;33780;51.034;7.120;2023-04-25T01:35:57;3.53;;;1.10;;
48014;SDS011;33780;51.034;7.120;2023-04-25T01:38:22;2.38;;;1.08;;
48014;SDS011;33780;51.034;7.120;2023-04-25T01:40:47;2.97;;;1.20;;
48014;SDS011;33780;51.034;7.120;2023-04-25T01:43:14;2.58;;;1.20;;
48014;SDS011;33780;51.034;7.120;2023-04-25T01:45:40;4.20;;;1.00;;
48014;SDS011;33780;51.034;7.120;2023-04-25T01:48:09;3.38;;;1.20;;
48014;SDS011;33780;51.034;7.120;2023-04-25T01:50:37;1.90;;;1.00;;
48014;SDS011;33780;51.034;7.120;2023-04-25T01:53:03;6.43;;;1.20;;
48014;SDS011;33780;51.034;7.120;2023-04-25T01:55:29;5.00;;;1.00;;
48014;SDS011;33780;51.034;7.120;2023-04-25T01:57:54;3.55;;;1.40;;
48014;SDS011;33780;51.034;7.120;2023-04-25T02:00:19;4.45;;;1.20;;
48014;SDS011;33780;51.034;7.120;2023-04-25T02:02:45;3.05;;;1.13;;
48014;SDS011;33780;51.034;7.120;2023-04-25T02:05:11;3.60;;;1.20;;
48014;SDS011;33780;51.034;7.120;2023-04-25T02:07:36;3.13;;;1.15;;
48014;SDS011;33780;51.034;7.120;2023-04-25T02:10:02;6.05;;;1.33;;
48014;SDS011;33780;51.034;7.120;2023-04-25T02:12:28;3.40;;;1.15;;
48014;SDS011;33780;51.034;7.120;2023-04-25T02:14:53;3.40;;;1.40;;
48014;SDS011;33780;51.034;7.120;2023-04-25T02:17:19;3.42;;;1.42;;
48014;SDS011;33780;51.034;7.120;2023-04-25T02:19:46;3.60;;;1.27;;
48014;SDS011;33780;51.034;7.120;2023-04-25T02:22:11;2.42;;;1.08;;
48014;SDS011;33780;51.034;7.120;2023-04-25T02:24:37;4.20;;;1.08;;
48014;SDS011;33780;51.034;7.120;2023-04-25T02:27:02;4.53;;;1.40;;
48014;SDS011;33780;51.034;7.120;2023-04-25T02:29:27;3.10;;;1.17;;
48014;SDS011;33780;51.034;7.120;2023-04-25T02:31:53;3.50;;;1.02;;
48014;SDS011;33780;51.034;7.120;2023-04-25T02:34:19;5.32;;;1.50;;
48014;SDS011;33780;51.034;7.120;2023-04-25T02:36:44;1.75;;;1.10;;
48014;SDS011;33780;51.034;7.120;2023-04-25T02:39:10;2.97;;;1.23;;
48014;SDS011;33780;51.034;7.120;2023-04-25T02:41:35;6.07;;;1.67;;
48014;SDS011;33780;51.034;7.120;2023-04-25T02:44:00;2.55;;;1.30;;
48014;SDS011;33780;51.034;7.120;2023-04-25T02:46:26;4.97;;;1.40;;
48014;SDS011;33780;51.034;7.120;2023-04-25T02:48:51;4.43;;;1.20;;
48014;SDS011;33780;51.034;7.120;2023-04-25T02:51:16;3.45;;;1.13;;
48014;SDS011;33780;51.034;7.120;2023-04-25T02:53:42;3.92;;;1.45;;
48014;SDS011;33780;51.034;7.120;2023-04-25T02:56:07;4.45;;;1.58;;
48014;SDS011;33780;51.034;7.120;2023-04-25T02:58:32;5.95;;;1.45;;
48014;SDS011;33780;51.034;7.120;2023-04-25T03:00:58;2.58;;;1.33;;
48014;SDS011;33780;51.034;7.120;2023-04-25T03:03:23;6.55;;;1.45;;
48014;SDS011;33780;51.034;7.120;2023-04-25T03:05:49;7.57;;;1.45;;
48014;SDS011;33780;51.034;7.120;2023-04-25T03:08:15;2.97;;;1.30;;
48014;SDS011;33780;51.034;7.120;2023-04-25T03:10:41;3.67;;;1.40;;
48014;SDS011;33780;51.034;7.120;2023-04-25T03:13:06;4.32;;;1.30;;
48014;SDS011;33780;51.034;7.120;2023-04-25T03:15:32;4.30;;;1.55;;
48014;SDS011;33780;51.034;7.120;2023-04-25T03:17:57;6.38;;;1.48;;
48014;SDS011;33780;51.034;7.120;2023-04-25T03:20:22;3.42;;;1.30;;
48014;SDS011;33780;51.034;7.120;2023-04-25T03:22:48;4.75;;;1.40;;
48014;SDS011;33780;51.034;7.120;2023-04-25T03:25:13;7.00;;;1.75;;
48014;SDS011;33780;51.034;7.120;2023-04-25T03:27:38;4.60;;;1.35;;
48014;SDS011;33780;51.034;7.120;2023-04-25T03:30:04;3.25;;;1.35;;
48014;SDS011;33780;51.034;7.120;2023-04-25T03:32:30;4.93;;;2.03;;
48014;SDS011;33780;51.034;7.120;2023-04-25T03:34:55;4.28;;;1.52;;
48014;SDS011;33780;51.034;7.120;2023-04-25T03:37:20;4.88;;;1.98;;
48014;SDS011;33780;51.034;7.120;2023-04-25T03:39:46;5.70;;;1.73;;
48014;SDS011;33780;51.034;7.120;2023-04-25T03:42:11;4.88;;;1.80;;
48014;SDS011;33780;51.034;7.120;2023-04-25T03:44:37;3.90;;;1.25;;
48014;SDS011;33780;51.034;7.120;2023-04-25T03:47:02;7.63;;;1.85;;
48014;SDS011;33780;51.034;7.120;2023-04-25T03:49:27;4.28;;;1.60;;
48014;SDS011;33780;51.034;7.120;2023-04-25T03:51:52;6.70;;;1.50;;
48014;SDS011;33780;51.034;7.120;2023-04-25T03:54:18;5.55;;;1.60;;
48014;SDS011;33780;51.034;7.120;2023-04-25T03:56:43;4.40;;;1.52;;
48014;SDS011;33780;51.034;7.120;2023-04-25T03:59:08;5.40;;;1.73;;
48014;SDS011;33780;51.034;7.120;2023-04-25T04:01:34;3.35;;;1.42;;
48014;SDS011;33780;51.034;7.120;2023-04-25T04:04:00;2.92;;;1.30;;
48014;SDS011;33780;51.034;7.120;2023-04-25T04:06:25;5.55;;;2.10;;
48014;SDS011;33780;51.034;7.120;2023-04-25T04:08:50;4.85;;;1.58;;
48014;SDS011;33780;51.034;7.120;2023-04-25T04:11:16;5.40;;;1.83;;
48014;SDS011;33780;51.034;7.120;2023-04-25T04:13:41;3.58;;;1.48;;
48014;SDS011;33780;51.034;7.120;2023-04-25T04:16:06;4.72;;;1.35;;
48014;SDS011;33780;51.034;7.120;2023-04-25T04:18:31;6.28;;;3.15;;
48014;SDS011;33780;51.034;7.120;2023-04-25T04:20:58;6.22;;;1.58;;
48014;SDS011;33780;51.034;7.120;2023-04-25T04:23:23;4.25;;;1.40;;
48014;SDS011;33780;51.034;7.120;2023-04-25T04:25:49;4.53;;;1.60;;
48014;SDS011;33780;51.034;7.120;2023-04-25T04:28:14;2.90;;;1.40;;
48014;SDS011;33780;51.034;7.120;2023-04-25T04:30:41;5.45;;;1.58;;
48014;SDS011;33780;51.034;7.120;2023-04-25T04:33:07;3.70;;;1.52;;
48014;SDS011;33780;51.034;7.120;2023-04-25T04:35:33;3.72;;;1.45;;
48014;SDS011;33780;51.034;7.120;2023-04-25T04:37:58;5.68;;;1.80;;
48014;SDS011;33780;51.034;7.120;2023-04-25T04:40:23;6.10;;;2.05;;
48014;SDS011;33780;51.034;7.120;2023-04-25T04:42:50;2.88;;;1.25;;
48014;SDS011;33780;51.034;7.120;2023-04-25T04:45:16;5.45;;;1.70;;
48014;SDS011;33780;51.034;7.120;2023-04-25T04:47:41;4.05;;;1.52;;
48014;SDS011;33780;51.034;7.120;2023-04-25T04:50:08;3.63;;;1.60;;
48014;SDS011;33780;51.034;7.120;2023-04-25T04:52:34;6.18;;;1.55;;
48014;SDS011;33780;51.034;7.120;2023-04-25T04:55:00;4.13;;;1.67;;
48014;SDS011;33780;51.034;7.120;2023-04-25T04:57:26;8.38;;;2.10;;
48014;SDS011;33780;51.034;7.120;2023-04-25T04:59:51;9.85;;;2.10;;
48014;SDS011;33780;51.034;7.120;2023-04-25T05:02:17;5.55;;;1.95;;
48014;SDS011;33780;51.034;7.120;2023-04-25T05:04:42;4.40;;;1.98;;
48014;SDS011;33780;51.034;7.120;2023-04-25T05:07:07;6.63;;;2.28;;
48014;SDS011;33780;51.034;7.120;2023-04-25T05:09:32;7.50;;;2.33;;
48014;SDS011;33780;51.034;7.120;2023-04-25T05:11:58;4.35;;;2.15;;
48014;SDS011;33780;51.034;7.120;2023-04-25T05:14:23;5.15;;;2.38;;
48014;SDS011;33780;51.034;7.120;2023-04-25T05:16:48;7.45;;;2.33;;
48014;SDS011;33780;51.034;7.120;2023-04-25T05:19:14;8.82;;;2.30;;
48014;SDS011;33780;51.034;7.120;2023-04-25T05:21:39;5.20;;;1.98;;
48014;SDS011;33780;51.034;7.120;2023-04-25T05:24:05;8.98;;;2.33;;
48014;SDS011;33780;51.034;7.120;2023-04-25T05:26:30;4.78;;;2.15;;
48014;SDS011;33780;51.034;7.120;2023-04-25T05:28:56;5.70;;;1.67;;
48014;SDS011;33780;51.034;7.120;2023-04-25T05:31:22;5.45;;;1.80;;
48014;SDS011;33780;51.034;7.120;2023-04-25T05:33:47;9.15;;;2.00;;
48014;SDS011;33780;51.034;7.120;2023-04-25T05:36:12;6.55;;;2.15;;
48014;SDS011;33780;51.034;7.120;2023-04-25T05:38:37;9.23;;;2.20;;
48014;SDS011;33780;51.034;7.120;2023-04-25T05:41:03;4.88;;;1.75;;
48014;SDS011;33780;51.034;7.120;2023-04-25T05:43:28;4.80;;;1.90;;
48014;SDS011;33780;51.034;7.120;2023-04-25T05:45:53;8.75;;;2.05;;
48014;SDS011;33780;51.034;7.120;2023-04-25T05:48:19;5.82;;;2.25;;
48014;SDS011;33780;51.034;7.120;2023-04-25T05:50:44;4.70;;;1.63;;
48014;SDS011;33780;51.034;7.120;2023-04-25T05:53:09;11.50;;;2.25;;
48014;SDS011;33780;51.034;7.120;2023-04-25T05:55:35;10.70;;;2.15;;
48014;SDS011;33780;51.034;7.120;2023-04-25T05:58:00;6.28;;;2.17;;
48014;SDS011;33780;51.034;7.120;2023-04-25T06:00:25;11.60;;;2.53;;
48014;SDS011;33780;51.034;7.120;2023-04-25T06:02:51;7.05;;;2.28;;
48014;SDS011;33780;51.034;7.120;2023-04-25T06:05:16;4.20;;;1.73;;
48014;SDS011;33780;51.034;7.120;2023-04-25T06:07:41;6.72;;;2.25;;
48014;SDS011;33780;51.034;7.120;2023-04-25T06:10:07;7.03;;;2.33;;
48014;SDS011;33780;51.034;7.120;2023-04-25T06:12:33;9.80;;;3.15;;
48014;SDS011;33780;51.034;7.120;2023-04-25T06:14:59;11.43;;;2.75;;
48014;SDS011;33780;51.034;7.120;2023-04-25T06:17:24;7.90;;;2.00;;
48014;SDS011;33780;51.034;7.120;2023-04-25T06:19:50;6.55;;;1.90;;
48014;SDS011;33780;51.034;7.120;2023-04-25T06:22:15;7.15;;;2.08;;
48014;SDS011;33780;51.034;7.120;2023-04-25T06:24:40;5.95;;;1.80;;
48014;SDS011;33780;51.034;7.120;2023-04-25T06:27:06;5.85;;;2.22;;
48014;SDS011;33780;51.034;7.120;2023-04-25T06:29:31;7.55;;;1.83;;
48014;SDS011;33780;51.034;7.120;2023-04-25T06:31:57;6.40;;;2.08;;
48014;SDS011;33780;51.034;7.120;2023-04-25T06:34:22;7.10;;;2.28;;
48014;SDS011;33780;51.034;7.120;2023-04-25T06:36:47;6.53;;;1.88;;
48014;SDS011;33780;51.034;7.120;2023-04-25T06:39:12;9.65;;;2.30;;
48014;SDS011;33780;51.034;7.120;2023-04-25T06:41:38;5.80;;;1.80;;
48014;SDS011;33780;51.034;7.120;2023-04-25T06:44:03;8.90;;;1.92;;
48014;SDS011;33780;51.034;7.120;2023-04-25T06:46:29;9.18;;;2.20;;
48014;SDS011;33780;51.034;7.120;2023-04-25T06:48:54;7.55;;;1.85;;
48014;SDS011;33780;51.034;7.120;2023-04-25T06:51:20;8.35;;;1.73;;
48014;SDS011;33780;51.034;7.120;2023-04-25T06:53:45;6.25;;;1.80;;
48014;SDS011;33780;51.034;7.120;2023-04-25T06:56:10;8.55;;;2.00;;
48014;SDS011;33780;51.034;7.120;2023-04-25T06:58:35;5.95;;;1.60;;
48014;SDS011;33780;51.034;7.120;2023-04-25T07:01:01;5.28;;;1.50;;
48014;SDS011;33780;51.034;7.120;2023-04-25T07:03:26;4.07;;;1.60;;
48014;SDS011;33780;51.034;7.120;2023-04-25T07:05:55;9.55;;;1.90;;
48014;SDS011;33780;51.034;7.120;2023-04-25T07:08:20;8.32;;;1.70;;
48014;SDS011;33780;51.034;7.120;2023-04-25T07:10:46;7.28;;;1.98;;
48014;SDS011;33780;51.034;7.120;2023-04-25T07:13:11;8.07;;;1.60;;
48014;SDS011;33780;51.034;7.120;2023-04-25T07:15:36;7.43;;;1.77;;
48014;SDS011;33780;51.034;7.120;2023-04-25T07:18:02;10.25;;;2.00;;
48014;SDS011;33780;51.034;7.120;2023-04-25T07:20:27;6.80;;;1.83;;
48014;SDS011;33780;51.034;7.120;2023-04-25T07:22:53;2.92;;;1.27;;
48014;SDS011;33780;51.034;7.120;2023-04-25T07:25:18;8.98;;;1.83;;
48014;SDS011;33780;51.034;7.120;2023-04-25T07:27:44;8.00;;;1.88;;
48014;SDS011;33780;51.034;7.120;2023-04-25T07:30:10;4.80;;;1.60;;
48014;SDS011;33780;51.034;7.120;2023-04-25T07:32:35;5.72;;;1.50;;
48014;SDS011;33780;51.034;7.120;2023-04-25T07:35:01;7.75;;;1.73;;
48014;SDS011;33780;51.034;7.120;2023-04-25T07:37:27;5.00;;;1.80;;
48014;SDS011;33780;51.034;7.120;2023-04-25T07:39:52;7.47;;;1.65;;
48014;SDS011;33780;51.034;7.120;2023-04-25T07:42:17;5.00;;;1.42;;
48014;SDS011;33780;51.034;7.120;2023-04-25T07:44:43;6.68;;;1.42;;
48014;SDS011;33780;51.034;7.120;2023-04-25T07:47:08;5.75;;;1.33;;
48014;SDS011;33780;51.034;7.120;2023-04-25T07:49:34;6.38;;;1.52;;
48014;SDS011;33780;51.034;7.120;2023-04-25T07:52:01;6.45;;;1.45;;
48014;SDS011;33780;51.034;7.120;2023-04-25T07:54:31;7.45;;;1.92;;
48014;SDS011;33780;51.034;7.120;2023-04-25T07:56:56;4.72;;;1.50;;
48014;SDS011;33780;51.034;7.120;2023-04-25T07:59:22;7.50;;;1.52;;
48014;SDS011;33780;51.034;7.120;2023-04-25T08:01:47;4.72;;;1.40;;
48014;SDS011;33780;51.034;7.120;2023-04-25T08:04:13;5.97;;;1.95;;
48014;SDS011;33780;51.034;7.120;2023-04-25T08:06:39;6.75;;;1.30;;
48014;SDS011;33780;51.034;7.120;2023-04-25T08:09:05;4.95;;;1.52;;
48014;SDS011;33780;51.034;7.120;2023-04-25T08:11:31;7.53;;;1.50;;
48014;SDS011;33780;51.034;7.120;2023-04-25T08:13:56;6.03;;;1.20;;
48014;SDS011;33780;51.034;7.120;2023-04-25T08:16:21;6.63;;;1.42;;
48014;SDS011;33780;51.034;7.120;2023-04-25T08:18:47;3.85;;;1.25;;
48014;SDS011;33780;51.034;7.120;2023-04-25T08:21:12;5.57;;;1.38;;
48014;SDS011;33780;51.034;7.120;2023-04-25T08:23:38;5.47;;;1.33;;
48014;SDS011;33780;51.034;7.120;2023-04-25T08:26:04;3.17;;;1.27;;
48014;SDS011;33780;51.034;7.120;2023-04-25T08:28:30;4.82;;;1.20;;
48014;SDS011;33780;51.034;7.120;2023-04-25T08:30:56;5.18;;;1.73;;
48014;SDS011;33780;51.034;7.120;2023-04-25T08:33:21;4.53;;;1.00;;
48014;SDS011;33780;51.034;7.120;2023-04-25T08:35:47;5.65;;;1.58;;
48014;SDS011;33780;51.034;7.120;2023-04-25T08:38:12;6.95;;;1.50;;
48014;SDS011;33780;51.034;7.120;2023-04-25T08:40:38;4.22;;;1.40;;
48014;SDS011;33780;51.034;7.120;2023-04-25T08:43:05;6.40;;;2.15;;
48014;SDS011;33780;51.034;7.120;2023-04-25T08:45:36;7.20;;;1.30;;
48014;SDS011;33780;51.034;7.120;2023-04-25T08:48:04;6.95;;;1.60;;
48014;SDS011;33780;51.034;7.120;2023-04-25T08:50:32;5.53;;;1.40;;
48014;SDS011;33780;51.034;7.120;2023-04-25T08:52:57;5.03;;;1.40;;
48014;SDS011;33780;51.034;7.120;2023-04-25T08:55:27;4.07;;;1.10;;
48014;SDS011;33780;51.034;7.120;2023-04-25T08:57:53;6.65;;;1.77;;
48014;SDS011;33780;51.034;7.120;2023-04-25T09:00:20;7.68;;;1.50;;
48014;SDS011;33780;51.034;7.120;2023-04-25T09:02:45;5.30;;;1.60;;
48014;SDS011;33780;51.034;7.120;2023-04-25T09:05:14;7.50;;;1.58;;
48014;SDS011;33780;51.034;7.120;2023-04-25T09:07:40;7.45;;;1.60;;
48014;SDS011;33780;51.034;7.120;2023-04-25T09:10:05;3.58;;;1.77;;
48014;SDS011;33780;51.034;7.120;2023-04-25T09:12:31;7.75;;;1.85;;
48014;SDS011;33780;51.034;7.120;2023-04-25T09:17:30;6.82;;;1.70;;
48014;SDS011;33780;51.034;7.120;2023-04-25T09:19:55;4.75;;;1.90;;
48014;SDS011;33780;51.034;7.120;2023-04-25T09:22:30;7.60;;;2.10;;
48014;SDS011;33780;51.034;7.120;2023-04-25T09:24:55;7.10;;;1.65;;
48014;SDS011;33780;51.034;7.120;2023-04-25T09:27:21;3.40;;;1.13;;
48014;SDS011;33780;51.034;7.120;2023-04-25T09:29:47;4.45;;;1.20;;
48014;SDS011;33780;51.034;7.120;2023-04-25T09:32:22;4.65;;;1.30;;
48014;SDS011;33780;51.034;7.120;2023-04-25T09:34:49;7.60;;;1.40;;
48014;SDS011;33780;51.034;7.120;2023-04-25T09:39:45;5.35;;;1.20;;
48014;SDS011;33780;51.034;7.120;2023-04-25T09:42:14;5.15;;;1.30;;
48014;SDS011;33780;51.034;7.120;2023-04-25T09:44:45;4.70;;;1.40;;
48014;SDS011;33780;51.034;7.120;2023-04-25T09:47:12;3.35;;;1.05;;
48014;SDS011;33780;51.034;7.120;2023-04-25T09:49:42;4.00;;;1.30;;
48014;SDS011;33780;51.034;7.120;2023-04-25T09:52:09;4.03;;;1.20;;
48014;SDS011;33780;51.034;7.120;2023-04-25T09:54:38;4.60;;;1.20;;
48014;SDS011;33780;51.034;7.120;2023-04-25T10:02:16;4.55;;;1.08;;
48014;SDS011;33780;51.034;7.120;2023-04-25T10:04:46;4.15;;;1.20;;
48014;SDS011;33780;51.034;7.120;2023-04-25T10:07:16;3.17;;;1.05;;
48014;SDS011;33780;51.034;7.120;2023-04-25T10:09:54;5.43;;;1.30;;
48014;SDS011;33780;51.034;7.120;2023-04-25T10:12:27;3.80;;;0.90;;
48014;SDS011;33780;51.034;7.120;2023-04-25T10:14:54;2.90;;;1.00;;
48014;SDS011;33780;51.034;7.120;2023-04-25T10:17:20;2.63;;;1.00;;
48014;SDS011;33780;51.034;7.120;2023-04-25T10:19:49;3.80;;;1.08;;
48014;SDS011;33780;51.034;7.120;2023-04-25T10:25:01;4.05;;;1.02;;
48014;SDS011;33780;51.034;7.120;2023-04-25T10:27:34;3.35;;;1.23;;
48014;SDS011;33780;51.034;7.120;2023-04-25T10:30:04;7.28;;;1.23;;
48014;SDS011;33780;51.034;7.120;2023-04-25T10:32:33;3.40;;;1.02;;
48014;SDS011;33780;51.034;7.120;2023-04-25T10:35:16;4.18;;;1.38;;
48014;SDS011;33780;51.034;7.120;2023-04-25T10:40:34;3.40;;;1.25;;
48014;SDS011;33780;51.034;7.120;2023-04-25T10:45:56;7.20;;;1.60;;
48014;SDS011;33780;51.034;7.120;2023-04-25T10:48:25;4.18;;;1.00;;
48014;SDS011;33780;51.034;7.120;2023-04-25T10:51:07;2.30;;;0.93;;
48014;SDS011;33780;51.034;7.120;2023-04-25T10:53:34;6.65;;;0.90;;
48014;SDS011;33780;51.034;7.120;2023-04-25T10:55:59;2.78;;;0.80;;
48014;SDS011;33780;51.034;7.120;2023-04-25T10:58:25;2.63;;;0.90;;
48014;SDS011;33780;51.034;7.120;2023-04-25T11:00:52;1.73;;;0.70;;
48014;SDS011;33780;51.034;7.120;2023-04-25T11:03:20;2.83;;;0.85;;
48014;SDS011;33780;51.034;7.120;2023-04-25T11:05:49;1.63;;;0.70;;
48014;SDS011;33780;51.034;7.120;2023-04-25T11:08:16;3.63;;;1.00;;
48014;SDS011;33780;51.034;7.120;2023-04-25T11:10:55;3.20;;;0.80;;
48014;SDS011;33780;51.034;7.120;2023-04-25T11:13:20;2.72;;;0.80;;
48014;SDS011;33780;51.034;7.120;2023-04-25T11:15:50;2.60;;;0.85;;
48014;SDS011;33780;51.034;7.120;2023-04-25T11:18:16;4.53;;;1.02;;
48014;SDS011;33780;51.034;7.120;2023-04-25T11:20:43;2.15;;;0.95;;
48014;SDS011;33780;51.034;7.120;2023-04-25T11:23:08;3.25;;;0.60;;
48014;SDS011;33780;51.034;7.120;2023-04-25T11:25:34;1.75;;;0.80;;
48014;SDS011;33780;51.034;7.120;2023-04-25T11:27:59;4.50;;;1.30;;
48014;SDS011;33780;51.034;7.120;2023-04-25T11:30:28;2.50;;;0.77;;
48014;SDS011;33780;51.034;7.120;2023-04-25T11:32:55;3.13;;;0.75;;
48014;SDS011;33780;51.034;7.120;2023-04-25T11:35:21;3.00;;;0.98;;
48014;SDS011;33780;51.034;7.120;2023-04-25T11:37:50;1.73;;;0.55;;
48014;SDS011;33780;51.034;7.120;2023-04-25T11:40:17;2.33;;;0.80;;
48014;SDS011;33780;51.034;7.120;2023-04-25T11:42:46;3.05;;;0.80;;
48014;SDS011;33780;51.034;7.120;2023-04-25T11:45:12;0.93;;;0.50;;
48014;SDS011;33780;51.034;7.120;2023-04-25T11:47:41;2.58;;;0.75;;
48014;SDS011;33780;51.034;7.120;2023-04-25T11:50:07;3.03;;;0.70;;
48014;SDS011;33780;51.034;7.120;2023-04-25T11:52:40;4.15;;;1.10;;
48014;SDS011;33780;51.034;7.120;2023-04-25T11:55:07;1.63;;;0.70;;
48014;SDS011;33780;51.034;7.120;2023-04-25T11:57:34;3.00;;;0.68;;
48014;SDS011;33780;51.034;7.120;2023-04-25T12:00:09;3.97;;;0.60;;
48014;SDS011;33780;51.034;7.120;2023-04-25T12:02:42;1.48;;;0.50;;
48014;SDS011;33780;51.034;7.120;2023-04-25T12:05:10;3.03;;;0.57;;
48014;SDS011;33780;51.034;7.120;2023-04-25T12:07:37;1.48;;;0.60;;
48014;SDS011;33780;51.034;7.120;2023-04-25T12:10:10;3.67;;;0.80;;
48014;SDS011;33780;51.034;7.120;2023-04-25T12:12:37;1.55;;;0.55;;
48014;SDS011;33780;51.034;7.120;2023-04-25T12:15:09;2.35;;;0.50;;
48014;SDS011;33780;51.034;7.120;2023-04-25T12:17:35;1.10;;;0.45;;
48014;SDS011;33780;51.034;7.120;2023-04-25T12:20:07;1.40;;;0.40;;
48014;SDS011;33780;51.034;7.120;2023-04-25T12:22:33;3.45;;;0.50;;
48014;SDS011;33780;51.034;7.120;2023-04-25T12:24:59;1.95;;;0.50;;
48014;SDS011;33780;51.034;7.120;2023-04-25T12:27:25;2.97;;;1.00;;
48014;SDS011;33780;51.034;7.120;2023-04-25T12:29:52;3.58;;;0.70;;
48014;SDS011;33780;51.034;7.120;2023-04-25T12:32:19;1.90;;;0.65;;
48014;SDS011;33780;51.034;7.120;2023-04-25T12:34:44;1.58;;;0.60;;
48014;SDS011;33780;51.034;7.120;2023-04-25T12:37:10;3.10;;;0.70;;
48014;SDS011;33780;51.034;7.120;2023-04-25T12:39:36;1.85;;;0.60;;
48014;SDS011;33780;51.034;7.120;2023-04-25T12:42:01;1.27;;;0.50;;
48014;SDS011;33780;51.034;7.120;2023-04-25T12:44:28;2.05;;;0.70;;
48014;SDS011;33780;51.034;7.120;2023-04-25T12:46:53;3.60;;;0.70;;
48014;SDS011;33780;51.034;7.120;2023-04-25T12:49:19;2.25;;;0.70;;
48014;SDS011;33780;51.034;7.120;2023-04-25T12:51:44;2.30;;;0.68;;
48014;SDS011;33780;51.034;7.120;2023-04-25T12:54:10;2.05;;;0.60;;
48014;SDS011;33780;51.034;7.120;2023-04-25T12:56:35;1.80;;;0.77;;
48014;SDS011;33780;51.034;7.120;2023-04-25T12:59:01;6.50;;;1.00;;
48014;SDS011;33780;51.034;7.120;2023-04-25T13:01:28;3.55;;;1.02;;
48014;SDS011;33780;51.034;7.120;2023-04-25T13:03:53;3.15;;;0.90;;
48014;SDS011;33780;51.034;7.120;2023-04-25T13:06:19;1.63;;;0.70;;
48014;SDS011;33780;51.034;7.120;2023-04-25T13:08:45;4.45;;;1.27;;
48014;SDS011;33780;51.034;7.120;2023-04-25T13:11:11;2.95;;;0.75;;
48014;SDS011;33780;51.034;7.120;2023-04-25T13:13:36;2.78;;;1.00;;
48014;SDS011;33780;51.034;7.120;2023-04-25T13:16:02;2.45;;;0.98;;
48014;SDS011;33780;51.034;7.120;2023-04-25T13:18:29;3.20;;;0.80;;
48014;SDS011;33780;51.034;7.120;2023-04-25T13:20:56;4.05;;;1.08;;
48014;SDS011;33780;51.034;7.120;2023-04-25T13:23:24;2.30;;;0.98;;
48014;SDS011;33780;51.034;7.120;2023-04-25T13:25:51;4.10;;;1.70;;
48014;SDS011;33780;51.034;7.120;2023-04-25T13:28:17;2.63;;;0.80;;
48014;SDS011;33780;51.034;7.120;2023-04-25T13:30:43;1.92;;;0.98;;
48014;SDS011;33780;51.034;7.120;2023-04-25T13:33:09;2.40;;;1.33;;
48014;SDS011;33780;51.034;7.120;2023-04-25T13:35:35;5.82;;;1.10;;
48014;SDS011;33780;51.034;7.120;2023-04-25T13:38:02;3.05;;;1.10;;
48014;SDS011;33780;51.034;7.120;2023-04-25T13:40:28;2.67;;;1.30;;
48014;SDS011;33780;51.034;7.120;2023-04-25T13:42:56;1.95;;;1.10;;
48014;SDS011;33780;51.034;7.120;2023-04-25T13:45:24;3.50;;;1.08;;
48014;SDS011;33780;51.034;7.120;2023-04-25T13:47:50;2.92;;;1.10;;
48014;SDS011;33780;51.034;7.120;2023-04-25T13:50:15;2.55;;;1.00;;
48014;SDS011;33780;51.034;7.120;2023-04-25T13:52:41;4.40;;;1.58;;
48014;SDS011;33780;51.034;7.120;2023-04-25T13:55:07;5.25;;;1.17;;
48014;SDS011;33780;51.034;7.120;2023-04-25T13:57:33;5.22;;;1.00;;
48014;SDS011;33780;51.034;7.120;2023-04-25T13:59:59;2.80;;;0.95;;
48014;SDS011;33780;51.034;7.120;2023-04-25T14:02:29;2.35;;;0.93;;
48014;SDS011;33780;51.034;7.120;2023-04-25T14:04:55;2.33;;;1.00;;
48014;SDS011;33780;51.034;7.120;2023-04-25T14:07:20;3.38;;;1.20;;
48014;SDS011;33780;51.034;7.120;2023-04-25T14:09:46;2.60;;;0.90;;
48014;SDS011;33780;51.034;7.120;2023-04-25T14:12:11;4.40;;;1.00;;
48014;SDS011;33780;51.034;7.120;2023-04-25T14:14:36;2.85;;;0.90;;
48014;SDS011;33780;51.034;7.120;2023-04-25T14:17:02;2.42;;;0.93;;
48014;SDS011;33780;51.034;7.120;2023-04-25T14:19:28;2.38;;;1.10;;
48014;SDS011;33780;51.034;7.120;2023-04-25T14:21:54;3.75;;;0.93;;
48014;SDS011;33780;51.034;7.120;2023-04-25T14:24:19;3.47;;;1.23;;
48014;SDS011;33780;51.034;7.120;2023-04-25T14:26:45;3.78;;;1.02;;
48014;SDS011;33780;51.034;7.120;2023-04-25T14:29:10;1.80;;;0.80;;
48014;SDS011;33780;51.034;7.120;2023-04-25T14:31:39;1.60;;;0.68;;
48014;SDS011;33780;51.034;7.120;2023-04-25T14:34:08;3.28;;;0.85;;
48014;SDS011;33780;51.034;7.120;2023-04-25T14:36:33;3.33;;;0.80;;
48014;SDS011;33780;51.034;7.120;2023-04-25T14:38:59;2.65;;;0.80;;
48014;SDS011;33780;51.034;7.120;2023-04-25T14:41:24;3.28;;;0.98;;
48014;SDS011;33780;51.034;7.120;2023-04-25T14:43:51;2.47;;;0.70;;
48014;SDS011;33780;51.034;7.120;2023-04-25T14:46:17;3.25;;;0.80;;
48014;SDS011;33780;51.034;7.120;2023-04-25T14:48:43;3.47;;;0.68;;
48014;SDS011;33780;51.034;7.120;2023-04-25T14:51:08;2.40;;;0.60;;
48014;SDS011;33780;51.034;7.120;2023-04-25T14:53:34;1.52;;;0.65;;
48014;SDS011;33780;51.034;7.120;2023-04-25T14:55:59;1.75;;;0.80;;
48014;SDS011;33780;51.034;7.120;2023-04-25T14:58:24;2.35;;;0.70;;
48014;SDS011;33780;51.034;7.120;2023-04-25T15:00:50;1.40;;;0.90;;